Time;durP1;ratioP1;P1;durP2;ratioP2;P2;SDS_P1;SDS_P2;PMS_P1;PMS_P2;Temp;Humidity;BMP_temperature;BMP_pressure;BME280_temperature;BME280_humidity;BME280_pressure;Samples;Min_cycle;Max_cycle;Signal;HPM_P1;HPM_P2
2022/08/09 00:00:51;;;;;;;2.57;1.07;;;;;;;17.73;65.23;101273.25;4935815;29;19993;-84
2022/08/09 00:03:17;;;;;;;;;;;;;;;17.72;64.95;101275.19;4936608;29;20035;-84
2022/08/09 00:05:43;;;;;;;2.05;0.80;;;;;;;17.76;64.91;101277.22;4935609;29;19911;-84
2022/08/09 00:08:09;;;;;;;;;;;;;;;17.65;65.27;101269.50;4935948;29;20028;-84
2022/08/09 00:10:35;;;;;;;2.42;1.00;;;;;;;17.62;65.57;101272.94;4935969;29;19910;-84
2022/08/09 00:13:00;;;;;;;3.08;1.00;;;;;;;17.57;65.76;101278.69;4935467;29;20455;-84
2022/08/09 00:15:25;;;;;;;;;;;;;;;17.59;65.69;101270.88;4935931;29;20062;-84
2022/08/09 00:17:51;;;;;;;2.87;1.10;;;;;;;17.54;66.00;101264.84;4934585;29;19969;-84
2022/08/09 00:20:16;;;;;;;5.50;0.95;;;;;;;17.55;66.04;101267.25;4936027;29;20282;-84
2022/08/09 00:22:42;;;;;;;;;;;;;;;17.54;66.07;101267.59;4936054;29;20058;-84
2022/08/09 00:25:07;;;;;;;2.73;1.10;;;;;;;17.60;65.91;101269.72;4935756;29;19964;-85
2022/08/09 00:27:33;;;;;;;2.95;1.10;;;;;;;17.52;66.10;101267.16;4936009;29;20275;-85
2022/08/09 00:29:58;;;;;;;;;;;;;;;17.44;66.56;101271.66;4936016;29;20109;-84
2022/08/09 00:32:23;;;;;;;2.40;0.90;;;;;;;17.38;66.92;101267.59;4935599;29;19966;-84
2022/08/09 00:34:48;;;;;;;;;;;;;;;17.41;66.85;101281.44;4935765;29;20039;-85
2022/08/09 00:37:14;;;;;;;3.20;1.23;;;;;;;17.43;66.58;101270.06;4935793;29;19925;-86
2022/08/09 00:39:39;;;;;;;;;;;;;;;17.38;66.94;101273.88;4936125;29;20042;-85
2022/08/09 00:42:05;;;;;;;2.28;1.20;;;;;;;17.35;67.15;101282.06;4935370;29;19910;-86
2022/08/09 00:44:30;;;;;;;;;;;;;;;17.31;67.34;101278.41;4935850;29;20091;-86
2022/08/09 00:46:55;;;;;;;2.03;0.90;;;;;;;17.27;67.56;101272.78;4935317;29;19942;-86
2022/08/09 00:49:21;;;;;;;2.78;1.20;;;;;;;17.22;67.75;101275.81;4935260;29;20264;-86
2022/08/09 00:51:47;;;;;;;;;;;;;;;17.11;67.92;101266.44;4935800;29;20039;-85
2022/08/09 00:54:13;;;;;;;3.95;1.20;;;;;;;17.10;68.42;101262.91;4935595;29;19914;-84
2022/08/09 00:56:38;;;;;;;4.00;1.27;;;;;;;17.04;68.72;101263.50;4935547;29;20091;-85
2022/08/09 00:59:03;;;;;;;;;;;;;;;17.08;68.53;101269.91;4935970;29;20035;-83
2022/08/09 01:01:35;;;;;;;2.42;0.95;;;;;;;17.08;68.66;101272.66;4935155;29;19921;-84
2022/08/09 01:04:07;;;;;;;3.10;1.17;;;;;;;17.09;68.70;101266.00;4936055;29;20435;-84
2022/08/09 01:06:41;;;;;;;2.97;1.23;;;;;;;17.04;68.81;101269.81;4936026;29;20087;-85
2022/08/09 01:09:18;;;;;;;3.47;1.30;;;;;;;17.01;69.03;101269.72;4936023;29;20138;-84
2022/08/09 01:12:42;;;;;;;3.47;1.30;;;;;;;16.94;69.38;101270.28;4934844;29;20066;-84
2022/08/09 01:15:23;;;;;;;2.38;1.10;;;;;;;16.93;69.55;101274.19;4895333;29;20040;-84
2022/08/09 01:18:00;;;;;;;3.15;1.10;;;;;;;16.97;69.35;101266.88;4930963;29;20048;-84
2022/08/09 01:20:33;;;;;;;;;;;;;;;16.90;69.63;101268.59;4937535;29;20083;-84
2022/08/09 01:23:16;;;;;;;3.63;1.00;;;;;;;16.93;69.50;101263.19;4938830;29;20001;-84
2022/08/09 01:26:07;;;;;;;2.95;1.05;;;;;;;16.97;69.40;101272.38;4938694;29;20408;-83
2022/08/09 01:28:37;;;;;;;4.53;1.42;;;;;;;16.86;70.02;101273.22;4938681;29;20032;-83
2022/08/09 01:31:05;;;;;;;4.28;1.20;;;;;;;16.88;69.76;101274.47;4953366;29;20114;-83
2022/08/09 01:33:36;;;;;;;3.30;1.25;;;;;;;16.91;69.90;101283.94;4938907;29;20072;-82
2022/08/09 01:36:05;;;;;;;2.88;1.23;;;;;;;16.87;70.10;101280.31;4938275;29;20056;-84
2022/08/09 01:38:36;;;;;;;3.45;1.00;;;;;;;16.84;70.23;101284.56;4938425;29;20034;-85
2022/08/09 01:41:28;;;;;;;2.25;0.93;;;;;;;16.82;69.91;101278.63;4938431;29;20572;-84
2022/08/09 01:43:57;;;;;;;2.28;0.90;;;;;;;16.79;70.11;101282.03;4938416;29;20127;-84
2022/08/09 01:46:35;;;;;;;4.68;1.17;;;;;;;16.72;70.72;101290.09;4938470;29;20043;-84
2022/08/09 01:49:10;;;;;;;3.63;1.40;;;;;;;16.64;71.31;101277.25;4937353;29;20043;-84
2022/08/09 01:51:38;;;;;;;3.10;1.35;;;;;;;16.57;71.58;101282.53;4938296;29;20155;-84
2022/08/09 01:54:05;;;;;;;3.28;1.30;;;;;;;16.47;72.01;101279.13;4938597;29;20024;-84
2022/08/09 01:56:33;;;;;;;4.07;1.35;;;;;;;16.48;72.23;101279.91;4938211;29;20372;-84
2022/08/09 01:59:04;;;;;;;14.07;1.75;;;;;;;16.49;72.13;101282.31;4938148;29;20028;-86
2022/08/09 02:01:32;;;;;;;3.00;1.27;;;;;;;16.40;72.81;101287.13;4938511;29;20031;-85
2022/08/09 02:03:59;;;;;;;3.15;1.33;;;;;;;16.42;72.70;101289.53;4937971;29;20518;-83
2022/08/09 02:09:12;;;;;;;2.90;1.30;;;;;;;16.39;72.91;101282.00;4937884;29;20042;-85
2022/08/09 02:11:38;;;;;;;2.70;1.13;;;;;;;16.41;73.01;101280.50;4937922;29;20039;-83
2022/08/09 02:14:05;;;;;;;3.22;1.30;;;;;;;16.33;73.24;101280.63;4938123;29;20032;-85
2022/08/09 02:16:34;;;;;;;3.92;1.40;;;;;;;16.32;73.49;101281.78;4937604;29;20039;-85
2022/08/09 02:19:00;;;;;;;2.33;1.00;;;;;;;16.30;73.69;101273.09;4937634;29;20035;-84
2022/08/09 02:21:32;;;;;;;3.50;1.42;;;;;;;16.33;73.60;101275.94;4937678;29;20482;-84
2022/08/09 02:23:59;;;;;;;2.65;1.10;;;;;;;16.34;73.55;101273.97;4937497;29;20065;-83
2022/08/09 02:26:28;;;;;;;3.33;1.25;;;;;;;16.25;73.86;101269.41;4937709;29;20031;-84
2022/08/09 02:28:59;;;;;;;3.65;1.35;;;;;;;16.10;74.47;101270.09;4937735;29;20031;-84
2022/08/09 02:31:31;;;;;;;2.88;1.15;;;;;;;16.11;74.71;101277.19;4936557;29;20439;-83
2022/08/09 02:34:02;;;;;;;2.88;1.45;;;;;;;16.12;74.83;101276.03;4937734;29;20032;-83
2022/08/09 02:36:40;;;;;;;3.40;1.40;;;;;;;16.24;74.35;101275.25;4937500;29;20066;-84
2022/08/09 02:39:19;;;;;;;3.25;1.25;;;;;;;16.23;74.49;101265.41;4937327;29;20042;-83
2022/08/09 02:41:49;;;;;;;3.55;1.40;;;;;;;16.24;74.25;101264.25;4937841;29;20414;-83
2022/08/09 02:44:19;;;;;;;3.10;1.10;;;;;;;16.28;74.34;101273.41;4937134;29;20031;-83
2022/08/09 02:46:48;;;;;;;3.35;1.45;;;;;;;16.19;74.55;101268.03;4937467;29;20040;-83
2022/08/09 02:49:16;;;;;;;4.03;1.17;;;;;;;16.14;74.89;101260.03;4937439;29;20379;-83
2022/08/09 02:51:45;;;;;;;4.75;1.40;;;;;;;16.02;75.38;101262.78;4936920;29;20126;-84
2022/08/09 02:54:13;;;;;;;4.22;1.33;;;;;;;15.95;75.78;101265.28;4937055;29;20047;-85
2022/08/09 02:56:41;;;;;;;3.85;1.50;;;;;;;16.03;75.49;101266.31;4936927;29;20379;-84
2022/08/09 02:59:09;;;;;;;4.82;1.30;;;;;;;15.99;75.75;101265.41;4937198;29;20072;-81
2022/08/09 03:01:36;;;;;;;3.80;1.40;;;;;;;15.91;76.14;101264.38;4936897;29;20130;-80
2022/08/09 03:04:04;;;;;;;3.33;1.40;;;;;;;15.91;76.23;101262.41;4936764;29;20031;-81
2022/08/09 03:06:30;;;;;;;3.13;1.17;;;;;;;15.91;76.42;101261.63;4936952;29;20406;-82
2022/08/09 03:08:56;;;;;;;;;;;;;;;15.97;76.24;101265.75;4937120;29;20023;-81
2022/08/09 03:11:22;;;;;;;3.78;1.40;;;;;;;15.91;76.49;101262.41;4936721;29;19915;-82
2022/08/09 03:13:50;;;;;;;3.33;1.25;;;;;;;15.92;76.55;101266.78;4936545;29;20031;-81
2022/08/09 03:16:19;;;;;;;3.70;1.48;;;;;;;15.89;76.56;101261.97;4936629;29;20120;-81
2022/08/09 03:18:46;;;;;;;4.05;1.50;;;;;;;16.04;76.06;101262.44;4936699;29;20060;-81
2022/08/09 03:21:13;;;;;;;3.63;1.50;;;;;;;15.87;76.64;101260.72;4936376;29;20024;-81
2022/08/09 03:23:38;;;;;;;3.50;1.52;;;;;;;15.90;76.74;101260.81;4936654;29;20117;-81
2022/08/09 03:26:04;;;;;;;3.38;1.30;;;;;;;15.89;76.55;101270.22;4937774;29;20043;-81
2022/08/09 03:28:31;;;;;;;;;;;;;;;15.75;77.34;101264.25;4937024;29;20043;-81
2022/08/09 03:30:58;;;;;;;4.57;1.60;;;;;;;15.71;77.74;101259.78;4936519;29;19998;-81
2022/08/09 03:33:23;;;;;;;4.63;1.73;;;;;;;15.66;77.88;101263.56;4936515;29;20039;-81
2022/08/09 03:35:50;;;;;;;4.07;1.55;;;;;;;15.63;78.08;101270.53;4935994;29;20048;-80
2022/08/09 03:38:16;;;;;;;4.55;2.28;;;;;;;15.55;78.64;101276.09;4936025;29;20032;-79
2022/08/09 03:40:41;;;;;;;5.63;1.83;;;;;;;15.57;78.57;101273.78;4936227;29;20034;-79
2022/08/09 03:43:06;;;;;;;3.85;1.80;;;;;;;15.59;78.53;101266.03;4935706;29;20040;-79
2022/08/09 03:45:31;;;;;;;;;;;;;;;15.67;78.51;101261.63;4936284;29;20501;-79
2022/08/09 03:47:57;;;;;;;6.20;1.63;;;;;;;15.57;78.57;101268.31;4935971;29;19972;-79
2022/08/09 03:50:25;;;;;;;3.88;1.55;;;;;;;15.54;78.82;101269.00;4935731;29;20311;-79
2022/08/09 03:52:52;;;;;;;3.80;1.50;;;;;;;15.53;78.95;101268.19;4935659;29;20070;-78
2022/08/09 03:55:18;;;;;;;3.15;1.38;;;;;;;15.64;78.28;101272.13;4935907;29;20513;-79
2022/08/09 03:57:43;;;;;;;3.47;1.10;;;;;;;15.63;78.54;101267.78;4935946;29;20043;-79
2022/08/09 04:00:09;;;;;;;3.60;1.60;;;;;;;15.64;78.70;101271.34;4935634;29;20518;-79
2022/08/09 04:02:35;;;;;;;4.10;1.95;;;;;;;15.66;78.55;101266.31;4935757;29;20402;-79
2022/08/09 04:05:02;;;;;;;3.88;1.38;;;;;;;15.64;78.61;101274.88;4935823;29;20047;-80
2022/08/09 04:07:29;;;;;;;3.90;1.60;;;;;;;15.58;78.91;101272.66;4935588;29;20032;-80
2022/08/09 04:09:54;;;;;;;5.05;1.95;;;;;;;15.53;79.16;101267.38;4935488;29;20035;-80
2022/08/09 04:12:45;;;;;;;4.35;1.55;;;;;;;15.38;79.83;101268.84;4935659;29;20110;-79
2022/08/09 04:15:13;;;;;;;5.30;1.90;;;;;;;15.46;79.65;101275.38;4935221;29;20050;-79
2022/08/09 04:17:40;;;;;;;4.40;1.70;;;;;;;15.44;79.70;101274.91;4935321;29;20094;-81
2022/08/09 04:20:08;;;;;;;4.57;1.65;;;;;;;15.43;79.79;101278.78;4935659;29;20057;-79
2022/08/09 04:22:33;;;;;;;6.10;2.28;;;;;;;15.31;79.98;101282.31;4935260;29;20466;-79
2022/08/09 04:24:59;;;;;;;5.22;2.30;;;;;;;15.29;80.42;101279.91;4934209;29;20153;-79
2022/08/09 04:27:24;;;;;;;;;;;;;;;15.29;80.44;101274.44;4935551;29;20036;-79
2022/08/09 04:29:50;;;;;;;3.43;1.40;;;;;;;15.27;80.62;101279.44;4935105;29;19918;-80
2022/08/09 04:32:15;;;;;;;3.67;1.63;;;;;;;15.24;80.84;101284.78;4935386;29;20626;-79
2022/08/09 04:34:40;;;;;;;3.63;1.55;;;;;;;15.33;80.27;101278.09;4934845;29;20054;-80
2022/08/09 04:37:06;;;;;;;4.20;1.73;;;;;;;15.31;80.56;101280.38;4935389;29;20475;-80
2022/08/09 04:39:32;;;;;;;3.58;1.70;;;;;;;15.23;80.90;101292.22;4933957;29;20347;-80
2022/08/09 04:41:57;;;;;;;6.32;1.98;;;;;;;15.24;81.08;101291.09;4935198;29;20490;-80
2022/08/09 04:44:23;;;;;;;4.13;1.73;;;;;;;15.17;81.53;101296.31;4935168;29;20042;-80
2022/08/09 04:46:48;;;;;;;5.90;1.70;;;;;;;15.33;81.02;101297.31;4935519;29;20485;-80
2022/08/09 04:49:13;;;;;;;4.75;1.80;;;;;;;15.26;81.27;101299.78;4935284;29;20259;-78
2022/08/09 04:51:39;;;;;;;4.70;1.85;;;;;;;15.18;81.79;101302.63;4934129;29;20048;-80
2022/08/09 04:54:04;;;;;;;4.65;1.88;;;;;;;15.19;81.68;101302.28;4934015;29;20066;-81
2022/08/09 04:56:29;;;;;;;6.78;1.95;;;;;;;15.25;81.60;101303.66;4938774;29;20455;-80
2022/08/09 04:58:55;;;;;;;4.18;1.98;;;;;;;15.17;81.98;101303.75;4938937;29;20114;-80
2022/08/09 05:01:20;;;;;;;;;;;;;;;15.22;81.80;101311.78;4939111;29;20027;-81
2022/08/09 05:03:47;;;;;;;3.25;1.45;;;;;;;15.20;82.20;101314.84;4938912;29;19930;-80
2022/08/09 05:06:13;;;;;;;4.78;1.80;;;;;;;15.30;81.80;101310.91;4939089;29;20039;-81
2022/08/09 05:08:38;;;;;;;5.15;2.30;;;;;;;15.23;81.85;101311.44;4937601;29;20042;-74
2022/08/09 05:11:04;;;;;;;5.55;2.28;;;;;;;15.24;82.14;101307.53;4938723;29;20115;-76
2022/08/09 05:13:30;;;;;;;4.38;2.22;;;;;;;15.32;81.90;101309.41;4938406;29;20043;-76
2022/08/09 05:15:55;;;;;;;6.57;2.27;;;;;;;15.45;81.10;101309.44;4938296;29;20039;-76
2022/08/09 05:18:20;;;;;;;5.83;2.20;;;;;;;15.42;81.26;101305.44;4938412;29;20358;-76
2022/08/09 05:20:46;;;;;;;6.63;2.65;;;;;;;15.48;81.18;101314.28;4937374;29;20307;-74
2022/08/09 05:23:11;;;;;;;5.85;2.25;;;;;;;15.49;81.13;101313.13;4938523;29;20046;-74
2022/08/09 05:25:37;;;;;;;6.50;2.22;;;;;;;15.39;81.46;101310.81;4938441;29;20039;-75
2022/08/09 05:28:02;;;;;;;4.78;2.15;;;;;;;15.48;81.37;101319.75;4938542;29;20094;-74
2022/08/09 05:30:28;;;;;;;;;;;;;;;15.63;80.74;101313.66;4938935;29;20036;-74
2022/08/09 05:32:54;;;;;;;9.20;2.72;;;;;;;15.83;80.11;101310.03;4938397;29;19917;-74
2022/08/09 05:35:20;;;;;;;;;;;;;;;15.73;80.33;101321.44;4938544;29;20158;-74
2022/08/09 05:37:47;;;;;;;4.45;2.05;;;;;;;15.59;81.02;101319.00;4938665;29;20024;-74
2022/08/09 05:40:13;;;;;;;5.03;2.33;;;;;;;15.61;81.34;101316.72;4938061;29;20115;-74
2022/08/09 05:42:38;;;;;;;4.70;2.42;;;;;;;15.62;80.77;101320.28;4938336;29;20361;-74
2022/08/09 05:45:04;;;;;;;5.63;2.75;;;;;;;15.56;81.45;101322.41;4938235;29;20464;-74
2022/08/09 05:47:30;;;;;;;6.82;2.70;;;;;;;15.74;80.87;101334.03;4936623;29;20396;-74
2022/08/09 05:49:55;;;;;;;7.28;2.60;;;;;;;15.76;80.55;101320.75;4937926;29;20062;-74
2022/08/09 05:52:21;;;;;;;;;;;;;;;15.76;80.49;101325.44;4938498;29;20027;-74
2022/08/09 05:54:46;;;;;;;5.18;1.90;;;;;;;15.80;80.39;101321.72;4937992;29;20325;-74
2022/08/09 05:57:11;;;;;;;5.63;2.30;;;;;;;15.81;80.51;101325.25;4936733;29;20485;-74
2022/08/09 05:59:37;;;;;;;9.25;2.95;;;;;;;15.99;79.72;101317.59;4937919;29;20294;-74
2022/08/09 06:02:03;;;;;;;7.88;2.95;;;;;;;15.98;79.89;101316.00;4937729;29;20489;-74
2022/08/09 06:04:28;;;;;;;4.75;2.58;;;;;;;16.06;79.71;101320.59;4937725;29;20028;-74
2022/08/09 06:06:53;;;;;;;;;;;;;;;16.02;79.67;101316.91;4937903;29;20082;-74
2022/08/09 06:09:19;;;;;;;5.63;2.60;;;;;;;16.21;79.13;101325.41;4937358;29;20029;-73
2022/08/09 06:11:45;;;;;;;5.72;2.20;;;;;;;16.22;78.96;101327.00;4937795;29;20107;-74
2022/08/09 06:14:10;;;;;;;6.45;2.30;;;;;;;16.34;78.48;101332.50;4937153;29;20042;-74
2022/08/09 06:16:36;;;;;;;;;;;;;;;16.50;77.74;101333.41;4937761;29;20032;-74
2022/08/09 06:19:01;;;;;;;7.18;2.47;;;;;;;16.37;78.30;101328.25;4937195;29;19923;-73
2022/08/09 06:21:26;;;;;;;;;;;;;;;16.46;77.75;101321.50;4936312;29;20032;-74
2022/08/09 06:23:54;;;;;;;4.70;1.98;;;;;;;16.71;76.66;101327.00;4936981;29;19922;-73
2022/08/09 06:26:21;;;;;;;6.53;2.85;;;;;;;16.73;76.42;101322.75;4937001;29;20028;-73
2022/08/09 06:28:49;;;;;;;5.05;2.55;;;;;;;16.79;76.18;101329.59;4935954;29;20090;-72
2022/08/09 06:31:15;;;;;;;5.28;2.20;;;;;;;16.96;75.45;101325.75;4936781;29;20039;-72
2022/08/09 06:33:40;;;;;;;5.05;2.00;;;;;;;16.90;76.09;101329.13;4937026;29;20084;-73
2022/08/09 06:36:05;;;;;;;;;;;;;;;17.09;75.62;101332.03;4937791;29;20051;-73
2022/08/09 06:38:31;;;;;;;4.90;2.08;;;;;;;17.30;74.45;101332.66;4937097;29;20370;-73
2022/08/09 06:40:56;;;;;;;;;;;;;;;17.81;72.18;101326.56;4937348;29;20033;-73
2022/08/09 06:43:21;;;;;;;5.90;2.23;;;;;;;18.49;69.31;101326.28;4936842;29;20010;-73
2022/08/09 06:45:46;;;;;;;;;;;;;;;18.96;67.59;101328.09;4937308;29;20590;-73
2022/08/09 06:48:12;;;;;;;9.00;2.67;;;;;;;19.41;66.30;101328.25;4936679;29;20360;-73
2022/08/09 06:50:37;;;;;;;3.30;1.58;;;;;;;19.41;65.72;101331.00;4936902;29;20032;-74
2022/08/09 06:53:03;;;;;;;;;;;;;;;20.01;63.97;101338.84;4937048;29;20039;-73
2022/08/09 06:55:31;;;;;;;5.00;1.73;;;;;;;20.08;63.49;101328.69;4936330;29;19914;-74
2022/08/09 06:57:57;;;;;;;4.90;1.80;;;;;;;19.97;63.40;101332.44;4936334;29;20031;-74
2022/08/09 07:00:24;;;;;;;4.88;1.92;;;;;;;19.93;63.37;101337.09;4935276;29;20427;-74
2022/08/09 07:02:50;;;;;;;4.07;1.85;;;;;;;19.62;64.72;101335.34;4936611;29;20032;-74
2022/08/09 07:05:15;;;;;;;5.10;1.80;;;;;;;19.68;64.41;101337.47;4935216;29;20050;-74
2022/08/09 07:07:40;;;;;;;5.63;2.40;;;;;;;19.73;64.47;101333.59;4936719;29;20367;-74
2022/08/09 07:10:06;;;;;;;4.32;2.03;;;;;;;20.37;62.42;101340.22;4936304;29;20035;-75
2022/08/09 07:12:32;;;;;;;4.97;1.55;;;;;;;19.49;64.37;101334.72;4936395;29;20119;-74
2022/08/09 07:14:57;;;;;;;3.88;1.65;;;;;;;19.52;64.95;101339.50;4934749;29;20387;-74
2022/08/09 07:17:22;;;;;;;;;;;;;;;19.18;66.50;101335.69;4936243;29;20028;-74
2022/08/09 07:19:49;;;;;;;5.93;2.23;;;;;;;19.34;66.29;101328.13;4936383;29;19911;-74
2022/08/09 07:22:14;;;;;;;5.13;2.60;;;;;;;19.43;65.59;101336.16;4936124;29;20032;-74
2022/08/09 07:24:40;;;;;;;3.15;1.33;;;;;;;19.58;65.73;101327.00;4936077;29;20031;-74
2022/08/09 07:27:06;;;;;;;4.53;1.90;;;;;;;19.57;65.14;101327.38;4936235;29;20039;-74
2022/08/09 07:29:32;;;;;;;6.05;1.80;;;;;;;19.57;65.16;101335.66;4936392;29;20034;-74
2022/08/09 07:31:59;;;;;;;6.30;2.17;;;;;;;19.51;65.51;101335.16;4936217;29;20043;-74
2022/08/09 07:34:24;;;;;;;6.95;2.22;;;;;;;19.47;65.86;101331.50;4935960;29;20490;-75
2022/08/09 07:36:50;;;;;;;7.07;2.22;;;;;;;19.23;66.46;101338.13;4935665;29;20064;-74
2022/08/09 07:39:16;;;;;;;4.13;1.88;;;;;;;19.22;66.35;101331.81;4936206;29;20031;-74
2022/08/09 07:41:41;;;;;;;;;;;;;;;19.32;65.61;101340.69;4936356;29;20047;-73
2022/08/09 07:44:06;;;;;;;5.20;2.03;;;;;;;19.23;65.34;101338.94;4935695;29;19926;-73
2022/08/09 07:46:31;;;;;;;;;;;;;;;19.20;65.26;101333.34;4936091;29;20274;-73
2022/08/09 07:48:57;;;;;;;6.47;2.73;;;;;;;19.34;65.56;101339.16;4935743;29;19957;-74
2022/08/09 07:51:22;;;;;;;;;;;;;;;19.39;65.67;101338.06;4936345;29;20271;-73
2022/08/09 07:53:50;;;;;;;4.25;1.65;;;;;;;19.69;65.89;101341.03;4935610;29;19915;-74
2022/08/09 07:56:15;;;;;;;4.60;2.05;;;;;;;19.76;64.35;101335.63;4935517;29;20110;-74
2022/08/09 07:58:41;;;;;;;5.13;1.73;;;;;;;19.88;63.51;101334.66;4934337;29;20131;-75
2022/08/09 08:01:06;;;;;;;6.10;2.00;;;;;;;20.08;63.11;101339.75;4935444;29;20031;-74
2022/08/09 08:03:32;;;;;;;;;;;;;;;20.06;62.51;101341.28;4935330;29;20119;-74
2022/08/09 08:05:57;;;;;;;5.68;2.15;;;;;;;19.98;62.41;101339.53;4934254;29;19914;-74
2022/08/09 08:08:23;;;;;;;;;;;;;;;19.97;63.46;101344.28;4936134;29;20031;-74
2022/08/09 08:10:49;;;;;;;6.07;1.90;;;;;;;20.19;63.54;101350.19;4935506;29;19966;-75
2022/08/09 08:13:14;;;;;;;4.82;1.75;;;;;;;20.30;62.24;101346.41;4934129;29;20035;-74
2022/08/09 08:15:40;;;;;;;5.00;2.30;;;;;;;20.25;63.20;101351.47;4935162;29;20459;-74
2022/08/09 08:18:05;;;;;;;4.28;1.80;;;;;;;20.27;61.62;101357.41;4935568;29;20031;-74
2022/08/09 08:20:31;;;;;;;4.13;1.80;;;;;;;20.20;61.74;101365.63;4935497;29;20032;-74
2022/08/09 08:22:58;;;;;;;4.53;1.88;;;;;;;20.47;61.47;101350.66;4935485;29;20043;-75
2022/08/09 08:25:23;;;;;;;6.65;2.22;;;;;;;20.65;60.34;101361.97;4935145;29;20508;-74
2022/08/09 08:27:48;;;;;;;4.85;2.20;;;;;;;20.70;59.72;101362.47;4935109;29;20032;-74
2022/08/09 08:30:16;;;;;;;4.05;1.90;;;;;;;20.57;59.52;101361.09;4934705;29;20040;-74
2022/08/09 08:32:41;;;;;;;4.72;1.83;;;;;;;20.71;59.50;101364.06;4935418;29;20110;-74
2022/08/09 08:35:07;;;;;;;5.32;2.03;;;;;;;20.87;57.85;101354.81;4935167;29;20118;-73
2022/08/09 08:37:33;;;;;;;3.88;2.05;;;;;;;20.83;58.14;101353.97;4935290;29;20047;-73
2022/08/09 08:39:59;;;;;;;3.45;1.50;;;;;;;20.84;59.63;101350.81;4934893;29;20335;-75
2022/08/09 08:42:24;;;;;;;6.65;2.72;;;;;;;21.27;57.25;101354.13;4935071;29;20036;-75
2022/08/09 08:44:56;;;;;;;4.90;2.05;;;;;;;21.13;56.78;101348.41;4934648;29;20036;-74
2022/08/09 08:47:22;;;;;;;4.03;1.70;;;;;;;21.26;57.06;101353.34;4935071;29;20043;-74
2022/08/09 08:49:48;;;;;;;3.63;1.75;;;;;;;21.55;56.73;101354.47;4934858;29;20039;-74
2022/08/09 08:52:15;;;;;;;3.50;1.70;;;;;;;21.73;55.34;101353.88;4934967;29;20048;-74
2022/08/09 08:54:40;;;;;;;4.28;2.00;;;;;;;21.65;55.86;101355.75;4933808;29;20481;-74
2022/08/09 08:57:08;;;;;;;4.38;1.80;;;;;;;21.77;56.42;101349.94;4935146;29;20031;-75
2022/08/09 08:59:33;;;;;;;3.53;1.45;;;;;;;21.99;55.17;101355.69;4933854;29;20031;-74
2022/08/09 09:01:59;;;;;;;4.03;2.00;;;;;;;21.65;55.75;101366.03;4934956;29;20032;-73
2022/08/09 09:04:28;;;;;;;5.15;1.80;;;;;;;21.57;56.64;101354.09;4935104;29;20122;-74
2022/08/09 09:06:57;;;;;;;5.03;1.67;;;;;;;21.89;55.42;101351.66;4933943;29;20364;-74
2022/08/09 09:09:25;;;;;;;5.85;1.95;;;;;;;21.84;55.09;101350.03;4935110;29;20538;-74
2022/08/09 09:11:51;;;;;;;4.53;1.60;;;;;;;22.02;54.51;101352.16;4935329;29;20034;-75
2022/08/09 09:14:21;;;;;;;6.40;1.98;;;;;;;22.18;53.39;101352.72;4935284;29;20111;-75
2022/08/09 09:16:46;;;;;;;4.00;1.50;;;;;;;22.27;53.30;101350.41;4934075;29;20136;-74
2022/08/09 09:19:12;;;;;;;5.05;1.90;;;;;;;22.38;53.35;101351.28;4935046;29;20040;-74
2022/08/09 09:22:05;;;;;;;5.05;1.70;;;;;;;22.28;53.02;101356.75;4935108;29;20090;-74
2022/08/09 09:24:40;;;;;;;3.45;1.60;;;;;;;22.25;53.08;101352.78;4933767;29;20058;-74
2022/08/09 09:27:07;;;;;;;3.97;1.70;;;;;;;22.46;52.83;101357.69;4934929;29;20483;-75
2022/08/09 09:29:36;;;;;;;3.10;1.45;;;;;;;22.66;51.85;101360.97;4935230;29;20032;-74
2022/08/09 09:32:02;;;;;;;2.95;1.42;;;;;;;22.67;51.04;101362.56;4934926;29;20030;-74
2022/08/09 09:34:28;;;;;;;3.83;1.73;;;;;;;22.63;51.96;101367.31;4934325;29;20038;-75
2022/08/09 09:36:55;;;;;;;3.67;1.60;;;;;;;22.63;52.04;101361.75;4934767;29;20395;-74
2022/08/09 09:39:22;;;;;;;3.92;1.65;;;;;;;22.84;51.00;101350.81;4934446;29;20386;-74
2022/08/09 09:41:49;;;;;;;2.70;1.30;;;;;;;23.05;49.72;101361.25;4936580;29;20035;-74
2022/08/09 09:44:28;;;;;;;3.83;1.45;;;;;;;22.98;49.44;101348.09;4937943;29;20038;-75
2022/08/09 09:47:02;;;;;;;6.20;1.98;;;;;;;22.87;49.62;101355.59;4938003;29;20040;-74
2022/08/09 09:49:27;;;;;;;3.83;1.77;;;;;;;22.79;49.53;101351.16;4938213;29;20040;-74
2022/08/09 09:52:01;;;;;;;5.05;1.50;;;;;;;23.01;49.06;101354.84;4938226;29;20038;-74
2022/08/09 09:54:34;;;;;;;2.97;1.30;;;;;;;23.17;48.51;101357.31;4937746;29;20082;-75
2022/08/09 09:57:12;;;;;;;4.63;1.90;;;;;;;23.06;47.91;101348.94;4937881;29;20035;-73
2022/08/09 09:59:37;;;;;;;3.20;1.40;;;;;;;23.18;48.29;101353.34;4937762;29;20420;-75
2022/08/09 10:02:03;;;;;;;3.20;1.80;;;;;;;23.27;46.83;101356.56;4938096;29;20024;-74
2022/08/09 10:04:28;;;;;;;3.60;1.65;;;;;;;23.41;46.54;101354.63;4937521;29;20091;-75
2022/08/09 10:06:53;;;;;;;3.08;1.30;;;;;;;23.61;45.81;101354.31;4937786;29;20194;-74
2022/08/09 10:09:19;;;;;;;2.83;1.25;;;;;;;23.69;45.73;101361.50;4937654;29;20036;-74
2022/08/09 10:11:44;;;;;;;3.63;1.75;;;;;;;23.60;46.33;101352.72;4937382;29;20515;-74
2022/08/09 10:14:23;;;;;;;3.72;1.70;;;;;;;23.82;45.61;101353.56;4937543;29;20368;-73
2022/08/09 10:16:49;;;;;;;3.47;1.40;;;;;;;23.51;46.07;101352.25;4936047;29;20391;-74
2022/08/09 10:19:15;;;;;;;3.25;1.40;;;;;;;23.85;45.54;101356.34;4937684;29;20051;-74
2022/08/09 10:21:48;;;;;;;4.75;1.30;;;;;;;23.79;44.27;101351.56;4937288;29;20066;-74
2022/08/09 10:24:18;;;;;;;3.85;1.48;;;;;;;23.80;44.93;101351.16;4937731;29;20039;-74
2022/08/09 10:26:47;;;;;;;3.42;1.50;;;;;;;23.92;44.90;101355.56;4937406;29;20394;-74
2022/08/09 10:29:13;;;;;;;3.63;1.45;;;;;;;23.91;44.62;101353.97;4937754;29;20040;-74
2022/08/09 10:31:39;;;;;;;3.42;1.50;;;;;;;23.95;44.53;101358.34;4936290;29;20028;-74
2022/08/09 10:34:05;;;;;;;3.47;1.42;;;;;;;23.79;44.37;101354.34;4937838;29;20042;-74
2022/08/09 10:36:31;;;;;;;4.80;1.50;;;;;;;23.75;44.57;101354.34;4937493;29;20059;-74
2022/08/09 10:38:57;;;;;;;4.03;1.75;;;;;;;23.90;44.35;101349.59;4937633;29;20039;-74
2022/08/09 10:41:22;;;;;;;3.88;2.13;;;;;;;23.99;43.67;101361.13;4936292;29;20062;-74
2022/08/09 10:43:49;;;;;;;3.65;1.60;;;;;;;24.12;43.72;101362.31;4937249;29;20036;-73
2022/08/09 10:46:36;;;;;;;4.32;1.52;;;;;;;24.03;44.18;101358.34;4937548;29;20107;-73
2022/08/09 10:49:12;;;;;;;3.95;1.55;;;;;;;24.17;44.48;101348.00;4937038;29;20087;-74
2022/08/09 10:52:08;;;;;;;3.63;1.55;;;;;;;24.06;44.39;101346.44;4937048;29;20114;-74
2022/08/09 10:54:33;;;;;;;4.80;1.48;;;;;;;24.25;43.04;101348.81;4937072;29;20042;-73
2022/08/09 10:57:10;;;;;;;3.63;1.65;;;;;;;24.38;43.30;101352.81;4937059;29;20402;-74
2022/08/09 10:59:37;;;;;;;3.35;1.45;;;;;;;24.41;43.24;101356.78;4935545;29;20186;-74
2022/08/09 11:02:07;;;;;;;3.83;1.65;;;;;;;24.24;43.37;101352.78;4936730;29;20028;-74
2022/08/09 11:04:34;;;;;;;4.82;2.28;;;;;;;24.34;42.74;101351.19;4936579;29;20027;-75
2022/08/09 11:07:02;;;;;;;3.00;1.40;;;;;;;24.42;42.60;101338.88;4936810;29;20098;-75
2022/08/09 11:09:36;;;;;;;2.63;1.15;;;;;;;24.67;42.51;101331.25;4937007;29;20071;-74
2022/08/09 11:12:12;;;;;;;3.30;1.23;;;;;;;24.95;41.88;101340.75;4935497;29;20032;-74
2022/08/09 11:14:43;;;;;;;3.50;1.67;;;;;;;24.73;41.88;101342.81;4935134;29;20039;-74
2022/08/09 11:17:14;;;;;;;3.40;1.27;;;;;;;24.84;41.91;101344.34;4935431;29;20039;-74
2022/08/09 11:20:11;;;;;;;3.22;1.48;;;;;;;25.08;41.40;101334.34;4936826;29;20035;-74
2022/08/09 11:22:40;;;;;;;5.15;1.60;;;;;;;25.09;41.17;101343.50;4936315;29;20066;-74
2022/08/09 11:25:09;;;;;;;4.35;1.60;;;;;;;25.01;41.21;101339.13;4936591;29;20043;-75
2022/08/09 11:27:37;;;;;;;4.05;1.67;;;;;;;24.93;41.18;101332.00;4936696;29;20032;-74
2022/08/09 11:30:05;;;;;;;3.58;1.33;;;;;;;25.07;41.03;101329.19;4936676;29;20106;-74
2022/08/09 11:32:44;;;;;;;4.10;1.30;;;;;;;25.15;40.25;101328.72;4936137;29;20515;-74
2022/08/09 11:35:12;;;;;;;3.15;1.40;;;;;;;25.32;39.91;101320.69;4936215;29;20050;-74
2022/08/09 11:37:39;;;;;;;5.15;1.63;;;;;;;25.36;39.26;101318.66;4936527;29;20036;-74